Time;durP1;ratioP1;P1;durP2;ratioP2;P2;SDS_P1;SDS_P2;PMS_P1;PMS_P2;Temp;Humidity;BMP_temperature;BMP_pressure;BME280_temperature;BME280_humidity;BME280_pressure;Samples;Min_cycle;Max_cycle;Signal;HPM_P1;HPM_P2
2023/11/24 00:00:17;;;;;;;1.73;0.90;;;;;;;8.43;nan;98546.47;5021004;27;101968;-80
2023/11/24 00:02:43;;;;;;;2.75;0.90;;;;;;;8.57;nan;98569.25;5021478;27;100822;-79
2023/11/24 00:05:09;;;;;;;2.83;1.08;;;;;;;8.51;nan;98587.91;5021239;27;96744;-78
2023/11/24 00:07:35;;;;;;;2.35;0.95;;;;;;;8.60;nan;98590.88;5073483;27;96718;-79
2023/11/24 00:10:01;;;;;;;1.83;0.60;;;;;;;8.49;nan;98608.06;5036882;27;100701;-78
2023/11/24 00:12:26;;;;;;;4.05;1.10;;;;;;;8.46;nan;98616.06;5020969;27;101584;-79
2023/11/24 00:14:52;;;;;;;2.60;1.15;;;;;;;8.50;nan;98601.91;5038149;27;96690;-81
2023/11/24 00:17:19;;;;;;;3.55;1.20;;;;;;;8.41;nan;98597.16;5020975;27;96806;-78
2023/11/24 00:19:44;;;;;;;2.97;0.95;;;;;;;8.43;nan;98579.63;5038377;27;97840;-78
2023/11/24 00:22:10;;;;;;;2.65;1.02;;;;;;;8.53;nan;98578.22;5037617;27;100969;-78
2023/11/24 00:24:37;;;;;;;2.75;0.80;;;;;;;8.52;nan;98586.97;5020773;27;96828;-77
2023/11/24 00:27:03;;;;;;;3.42;0.70;;;;;;;8.52;nan;98594.81;5055031;27;96796;-79
2023/11/24 00:29:28;;;;;;;3.50;1.23;;;;;;;8.50;nan;98587.06;5037480;27;101149;-79
2023/11/24 00:31:54;;;;;;;1.35;0.55;;;;;;;8.51;nan;98580.91;5037343;27;100961;-79
2023/11/24 00:34:19;;;;;;;2.63;0.80;;;;;;;8.44;nan;98574.31;5054382;27;96642;-79
2023/11/24 00:36:46;;;;;;;5.82;1.20;;;;;;;8.36;nan;98564.22;5054606;27;96814;-79
2023/11/24 00:39:13;;;;;;;2.25;0.70;;;;;;;8.33;nan;98564.38;5036220;27;101369;-78
2023/11/24 00:41:39;;;;;;;2.60;0.88;;;;;;;8.36;nan;98566.84;5037723;27;98481;-79
2023/11/24 00:44:05;;;;;;;2.55;0.82;;;;;;;8.31;nan;98555.78;5037708;27;96530;-79
2023/11/24 00:46:30;;;;;;;2.75;0.85;;;;;;;8.30;nan;98548.88;5054713;27;96572;-79
2023/11/24 00:48:58;;;;;;;2.92;0.90;;;;;;;8.23;nan;98537.06;5037186;27;101179;-79
2023/11/24 00:51:25;;;;;;;3.97;0.77;;;;;;;8.31;nan;98553.16;5037547;27;101140;-78
2023/11/24 00:53:52;;;;;;;3.70;1.20;;;;;;;8.29;nan;98543.69;5054656;27;96684;-79
2023/11/24 00:56:18;;;;;;;2.00;0.75;;;;;;;8.31;nan;98547.09;5020511;27;96786;-79
2023/11/24 00:58:46;;;;;;;4.47;1.08;;;;;;;8.32;nan;98551.38;5036840;27;98343;-79
2023/11/24 01:01:12;;;;;;;3.70;1.20;;;;;;;8.41;nan;98548.34;5037346;27;101124;-78
2023/11/24 01:03:38;;;;;;;1.83;0.82;;;;;;;8.45;nan;98541.16;5054221;27;96589;-79
2023/11/24 01:06:04;;;;;;;4.05;0.80;;;;;;;8.51;nan;98586.13;5036954;27;96850;-79
2023/11/24 01:08:30;;;;;;;0.82;0.60;;;;;;;8.56;nan;98575.44;5054206;27;98324;-79
2023/11/24 01:10:57;;;;;;;1.13;0.70;;;;;;;8.66;nan;98563.53;5036966;27;97522;-78
2023/11/24 01:13:24;;;;;;;3.45;0.80;;;;;;;8.76;nan;98546.44;5037127;27;96884;-79
2023/11/24 01:15:50;;;;;;;2.25;0.63;;;;;;;8.63;nan;98534.94;5020765;27;97010;-78
2023/11/24 01:18:15;;;;;;;3.70;0.93;;;;;;;8.66;nan;98540.00;5020072;27;101012;-79
2023/11/24 01:20:41;;;;;;;1.67;0.77;;;;;;;8.66;nan;98533.94;5019995;27;101571;-78
2023/11/24 01:23:07;;;;;;;3.03;0.90;;;;;;;8.63;nan;98536.72;5036872;27;96630;-78
2023/11/24 01:25:33;;;;;;;2.92;0.80;;;;;;;8.56;nan;98539.66;5020091;27;96821;-79
2023/11/24 01:28:01;;;;;;;3.70;1.20;;;;;;;8.64;nan;98517.47;5036759;27;101104;-79
2023/11/24 01:30:26;;;;;;;2.03;0.90;;;;;;;8.64;nan;98525.31;5037077;27;97508;-79
2023/11/24 01:32:52;;;;;;;1.65;0.88;;;;;;;8.61;nan;98542.03;5020191;27;96687;-79
2023/11/24 01:35:18;;;;;;;4.25;1.40;;;;;;;8.63;nan;98547.16;5036826;27;96877;-78
2023/11/24 01:37:44;;;;;;;3.95;1.63;;;;;;;8.51;nan;98527.75;5053904;27;98722;-79
2023/11/24 01:40:10;;;;;;;2.90;1.02;;;;;;;8.56;nan;98530.97;5054073;27;97297;-78
2023/11/24 01:42:37;;;;;;;11.77;2.15;;;;;;;8.57;nan;98536.09;5037308;27;96660;-79
2023/11/24 01:45:09;;;;;;;3.42;1.10;;;;;;;8.42;nan;98536.94;5036592;27;96810;-80
2023/11/24 01:47:34;;;;;;;6.40;1.42;;;;;;;8.42;nan;98521.25;5036341;27;101654;-78
2023/11/24 01:50:02;;;;;;;3.42;1.20;;;;;;;8.49;nan;98538.28;5038439;27;101342;-78
2023/11/24 01:52:28;;;;;;;3.22;0.93;;;;;;;8.59;nan;98549.94;5040354;27;96630;-79
2023/11/24 01:54:53;;;;;;;6.03;1.35;;;;;;;8.60;nan;98541.16;5040038;27;96833;-79
2023/11/24 01:57:21;;;;;;;3.47;1.33;;;;;;;8.59;nan;98557.81;5023272;27;101086;-78
2023/11/24 01:59:48;;;;;;;5.22;1.23;;;;;;;8.51;nan;98556.53;5040098;27;101456;-78
2023/11/24 02:02:14;;;;;;;9.93;1.52;;;;;;;8.50;nan;98550.44;5039877;27;96795;-79
2023/11/24 02:04:41;;;;;;;6.55;2.13;;;;;;;8.50;nan;98537.38;5075577;27;98336;-80
2023/11/24 02:07:10;;;;;;;7.93;2.20;;;;;;;8.51;nan;98528.59;5040037;27;98604;-78
2023/11/24 02:09:35;;;;;;;5.40;1.63;;;;;;;8.40;nan;98523.09;5056160;27;97396;-79
2023/11/24 02:12:01;;;;;;;8.18;2.28;;;;;;;8.41;nan;98537.88;5022585;27;97630;-78
2023/11/24 02:14:28;;;;;;;9.98;2.03;;;;;;;8.54;nan;98545.91;5019553;27;97415;-79
2023/11/24 02:16:53;;;;;;;7.63;2.00;;;;;;;8.44;nan;98537.72;5021472;27;101362;-80
2023/11/24 02:19:19;;;;;;;8.80;2.30;;;;;;;8.41;nan;98542.22;5039371;27;101540;-78
2023/11/24 02:21:45;;;;;;;5.28;1.90;;;;;;;8.47;nan;98541.94;5039654;27;96668;-79
2023/11/24 02:24:11;;;;;;;10.40;2.10;;;;;;;8.37;nan;98525.84;5022677;27;96857;-78
2023/11/24 02:26:37;;;;;;;7.15;2.47;;;;;;;8.45;nan;98533.31;5022694;27;101359;-80
2023/11/24 02:29:02;;;;;;;12.43;2.35;;;;;;;8.41;nan;98523.94;5023033;27;101328;-78
2023/11/24 02:31:28;;;;;;;6.72;1.85;;;;;;;8.32;nan;98506.94;5022603;27;96613;-79
2023/11/24 02:33:54;;;;;;;6.82;1.92;;;;;;;8.35;nan;98478.88;5039829;27;96643;-79
2023/11/24 02:36:27;;;;;;;6.78;2.50;;;;;;;8.53;nan;98500.59;5022045;27;101308;-79
2023/11/24 02:38:54;;;;;;;8.88;2.20;;;;;;;8.59;nan;98499.41;5023951;27;100010;-79
2023/11/24 02:41:22;;;;;;;11.25;2.13;;;;;;;8.49;nan;98493.81;5039324;27;96981;-79
2023/11/24 02:43:49;;;;;;;5.32;1.67;;;;;;;8.45;nan;98473.19;5022774;27;96667;-78
2023/11/24 02:46:15;;;;;;;10.55;1.73;;;;;;;8.51;nan;98484.13;5039239;27;100573;-79
2023/11/24 02:48:42;;;;;;;6.88;2.25;;;;;;;8.52;nan;98487.59;5056327;27;98322;-78
2023/11/24 02:51:08;;;;;;;5.93;1.55;;;;;;;8.28;nan;98487.13;5022532;27;96672;-78
2023/11/24 02:53:35;;;;;;;4.85;1.30;;;;;;;8.15;nan;98479.09;5039834;27;96894;-78
2023/11/24 02:56:03;;;;;;;9.45;1.95;;;;;;;7.97;nan;98493.13;5022235;27;101181;-78
2023/11/24 02:58:29;;;;;;;7.13;1.63;;;;;;;7.91;nan;98517.78;5038932;27;101454;-78
2023/11/24 03:00:55;;;;;;;3.95;0.80;;;;;;;8.04;nan;98523.25;5020919;27;97620;-78
2023/11/24 03:03:22;;;;;;;2.58;0.90;;;;;;;8.00;nan;98530.41;5022316;27;97427;-77
2023/11/24 03:05:50;;;;;;;3.38;1.17;;;;;;;8.00;nan;98534.75;5038614;27;100807;-77
2023/11/24 03:08:17;;;;;;;5.28;1.35;;;;;;;8.03;nan;98560.75;5022333;27;101425;-78
2023/11/24 03:10:43;;;;;;;4.40;1.70;;;;;;;7.97;nan;98556.69;5038519;27;96733;-76
2023/11/24 03:13:09;;;;;;;5.50;1.50;;;;;;;7.96;nan;98555.00;5039103;27;96874;-76
2023/11/24 03:15:35;;;;;;;5.22;1.38;;;;;;;7.99;nan;98536.53;5021588;27;101413;-77
2023/11/24 03:18:01;;;;;;;5.13;1.15;;;;;;;8.02;nan;98544.22;5039246;27;97607;-76
2023/11/24 03:20:27;;;;;;;2.60;0.90;;;;;;;7.97;nan;98525.34;5039086;27;96645;-77
2023/11/24 03:22:53;;;;;;;1.75;0.70;;;;;;;7.93;nan;98534.25;5038618;27;96765;-77
2023/11/24 03:25:18;;;;;;;1.90;0.80;;;;;;;8.03;nan;98521.53;5055217;27;98083;-77
2023/11/24 03:27:44;;;;;;;6.53;1.48;;;;;;;8.01;nan;98528.63;5038650;27;101942;-77
2023/11/24 03:30:10;;;;;;;2.80;0.80;;;;;;;8.04;nan;98515.41;5022012;27;96639;-78
2023/11/24 03:32:35;;;;;;;3.85;1.02;;;;;;;8.07;nan;98520.47;5039283;27;96561;-79
2023/11/24 03:35:01;;;;;;;5.20;1.20;;;;;;;8.08;nan;98523.00;5038546;27;101895;-78
2023/11/24 03:37:27;;;;;;;2.97;1.08;;;;;;;8.01;nan;98513.81;5074330;27;98140;-77
2023/11/24 03:39:53;;;;;;;1.17;0.80;;;;;;;8.08;nan;98528.22;5038762;27;96591;-79
2023/11/24 03:42:19;;;;;;;4.63;1.90;;;;;;;7.97;nan;98532.31;5074735;27;96702;-78
2023/11/24 03:44:45;;;;;;;3.78;1.20;;;;;;;8.07;nan;98529.16;5055195;27;98367;-79
2023/11/24 03:47:10;;;;;;;2.13;1.05;;;;;;;8.11;nan;98538.50;5055224;27;97837;-78
2023/11/24 03:49:36;;;;;;;5.15;1.70;;;;;;;8.09;nan;98532.53;5037746;27;96998;-77
2023/11/24 03:52:02;;;;;;;4.82;1.73;;;;;;;8.15;nan;98520.91;5038458;27;96820;-78
2023/11/24 03:54:27;;;;;;;3.58;1.48;;;;;;;8.10;nan;98521.16;5021252;27;100867;-77
2023/11/24 03:56:53;;;;;;;4.22;1.75;;;;;;;8.14;nan;98520.09;5037893;27;101347;-77
2023/11/24 03:59:19;;;;;;;2.85;1.20;;;;;;;8.09;nan;98516.88;5021258;27;96651;-78
2023/11/24 04:01:44;;;;;;;3.05;0.85;;;;;;;7.99;nan;98515.63;5055148;27;96495;-79
2023/11/24 04:04:10;;;;;;;6.65;1.50;;;;;;;8.08;nan;98525.59;5037864;27;101362;-78
2023/11/24 04:06:35;;;;;;;5.10;1.50;;;;;;;8.05;nan;98515.31;5055256;27;98423;-78
2023/11/24 04:09:01;;;;;;;4.32;1.10;;;;;;;8.12;nan;98519.31;5020424;27;97115;-78
2023/11/24 04:11:26;;;;;;;4.40;1.23;;;;;;;8.08;nan;98511.69;5038028;27;96811;-77
2023/11/24 04:13:53;;;;;;;8.95;1.75;;;;;;;8.13;nan;98507.09;5037663;27;97840;-78
2023/11/24 04:16:19;;;;;;;8.27;1.70;;;;;;;8.04;nan;98507.56;5037451;27;101220;-77
2023/11/24 04:18:45;;;;;;;9.57;1.92;;;;;;;7.97;nan;98504.44;5054839;27;96579;-77
2023/11/24 04:21:10;;;;;;;10.27;2.38;;;;;;;7.94;nan;98497.59;5054581;27;96716;-77
2023/11/24 04:23:36;;;;;;;6.15;1.85;;;;;;;7.95;nan;98498.44;5037720;27;98116;-77
2023/11/24 04:26:02;;;;;;;8.48;2.03;;;;;;;8.04;nan;98511.03;5037383;27;101266;-77
2023/11/24 04:28:27;;;;;;;7.50;1.63;;;;;;;7.88;nan;98494.44;5072922;27;96503;-77
2023/11/24 04:30:53;;;;;;;14.77;2.67;;;;;;;7.98;nan;98494.84;5037936;27;96886;-77
2023/11/24 04:33:19;;;;;;;11.82;2.40;;;;;;;7.97;nan;98494.00;5054260;27;100979;-77
2023/11/24 04:35:45;;;;;;;11.55;2.55;;;;;;;7.87;nan;98475.31;5054692;27;97870;-78
2023/11/24 04:38:10;;;;;;;7.22;2.30;;;;;;;7.77;nan;98479.34;5054205;27;96744;-77
2023/11/24 04:40:36;;;;;;;12.02;2.38;;;;;;;7.79;nan;98484.47;5020573;27;97218;-77
2023/11/24 04:43:02;;;;;;;8.15;2.25;;;;;;;7.79;nan;98485.31;5054465;27;97642;-77
2023/11/24 04:45:27;;;;;;;7.35;2.05;;;;;;;7.67;nan;98460.69;5020548;27;101330;-77
2023/11/24 04:47:53;;;;;;;10.52;2.00;;;;;;;7.79;nan;98484.47;5020746;27;96545;-77
2023/11/24 04:50:18;;;;;;;17.90;3.20;;;;;;;7.69;nan;98482.34;5037205;27;96887;-77
2023/11/24 04:52:44;;;;;;;14.35;2.80;;;;;;;7.76;nan;98482.88;5037342;27;98221;-77
2023/11/24 04:55:09;;;;;;;9.55;2.03;;;;;;;7.74;nan;98489.97;5072895;27;97362;-77
2023/11/24 04:57:35;;;;;;;6.22;2.60;;;;;;;7.71;nan;98487.50;5037553;27;96723;-77
2023/11/24 05:00:01;;;;;;;10.57;2.50;;;;;;;7.69;nan;98481.50;5054469;27;96909;-77
2023/11/24 05:02:29;;;;;;;13.20;3.10;;;;;;;7.68;nan;98500.72;5036299;27;101464;-77
2023/11/24 05:04:55;;;;;;;9.35;2.50;;;;;;;7.63;nan;98498.34;5020543;27;101529;-77
2023/11/24 05:07:23;;;;;;;16.23;3.22;;;;;;;7.63;nan;98494.88;5020228;27;96700;-77
2023/11/24 05:09:49;;;;;;;12.45;2.53;;;;;;;7.70;nan;98485.78;5034016;27;96788;-76
2023/11/24 05:12:15;;;;;;;14.70;3.03;;;;;;;7.65;nan;98482.56;5037255;27;97508;-77
2023/11/24 05:14:40;;;;;;;13.05;2.50;;;;;;;7.63;nan;98484.44;5037171;27;97642;-77
2023/11/24 05:17:06;;;;;;;9.23;2.45;;;;;;;7.46;nan;98493.97;5020221;27;96686;-78
2023/11/24 05:19:32;;;;;;;14.77;3.28;;;;;;;7.46;nan;98490.50;5020282;27;96772;-77
2023/11/24 05:21:57;;;;;;;9.57;2.50;;;;;;;7.30;nan;98493.06;5036861;27;97319;-77
2023/11/24 05:24:24;;;;;;;9.57;2.17;;;;;;;7.37;nan;98488.34;5021332;27;96629;-77
2023/11/24 05:26:49;;;;;;;15.48;3.28;;;;;;;7.49;nan;98490.34;5039851;27;97594;-79
2023/11/24 05:29:15;;;;;;;16.27;2.65;;;;;;;7.30;nan;98485.22;5039976;27;96812;-79
2023/11/24 05:31:40;;;;;;;16.80;3.13;;;;;;;7.35;nan;98493.66;5026123;27;101069;-77
2023/11/24 05:34:06;;;;;;;9.38;2.28;;;;;;;7.17;nan;98491.94;5040278;27;97863;-76
2023/11/24 05:36:33;;;;;;;8.10;2.40;;;;;;;7.18;nan;98494.47;5040033;27;96624;-76
2023/11/24 05:38:59;;;;;;;11.35;2.58;;;;;;;7.24;nan;98502.03;5040248;27;96812;-76
2023/11/24 05:41:26;;;;;;;9.52;2.67;;;;;;;7.26;nan;98507.16;5039752;27;99510;-76
2023/11/24 05:43:52;;;;;;;6.25;1.55;;;;;;;7.08;nan;98493.25;5057458;27;97642;-76
2023/11/24 05:46:18;;;;;;;6.05;1.80;;;;;;;7.09;nan;98517.56;5040090;27;96639;-75
2023/11/24 05:48:44;;;;;;;5.20;1.58;;;;;;;7.14;nan;98520.81;5039981;27;96757;-77
2023/11/24 05:51:09;;;;;;;5.78;1.45;;;;;;;6.94;nan;98513.94;5039420;27;100931;-75
2023/11/24 05:53:35;;;;;;;5.03;1.25;;;;;;;6.94;nan;98527.81;5039818;27;101116;-76
2023/11/24 05:56:00;;;;;;;4.80;1.25;;;;;;;6.87;nan;98512.56;5057366;27;96656;-74
2023/11/24 05:58:26;;;;;;;3.67;1.20;;;;;;;6.91;nan;98508.88;5040322;27;96706;-76
2023/11/24 06:00:51;;;;;;;4.30;1.27;;;;;;;6.92;nan;98531.41;5056754;27;97489;-75
2023/11/24 06:03:17;;;;;;;3.05;1.15;;;;;;;7.02;nan;98517.03;5039827;27;101299;-73
2023/11/24 06:05:42;;;;;;;4.57;1.38;;;;;;;6.96;nan;98526.00;5039556;27;96510;-71
2023/11/24 06:08:08;;;;;;;3.80;1.42;;;;;;;6.97;nan;98519.84;5023556;27;96760;-79
2023/11/24 06:10:33;;;;;;;4.10;1.33;;;;;;;6.87;nan;98533.41;5019399;27;101786;-84
2023/11/24 06:12:59;;;;;;;3.63;1.10;;;;;;;6.99;nan;98530.22;5055514;27;101285;-70
2023/11/24 06:15:25;;;;;;;3.75;1.15;;;;;;;6.90;nan;98525.44;5039046;27;97504;-72
2023/11/24 06:17:51;;;;;;;8.98;1.58;;;;;;;7.07;nan;98533.31;5056515;27;96807;-74
2023/11/24 06:20:17;;;;;;;6.90;1.75;;;;;;;6.95;nan;98529.53;5022430;27;101064;-75
2023/11/24 06:22:45;;;;;;;28.23;4.82;;;;;;;6.94;nan;98524.38;5056378;27;98001;-75
2023/11/24 06:25:10;;;;;;;5.20;1.50;;;;;;;6.85;nan;98522.19;5022705;27;96702;-75
2023/11/24 06:27:37;;;;;;;5.50;1.65;;;;;;;6.66;nan;98511.78;5039343;27;96928;-74
2023/11/24 06:30:05;;;;;;;9.18;1.55;;;;;;;6.78;nan;98527.72;5039110;27;101525;-75
2023/11/24 06:32:34;;;;;;;8.55;1.92;;;;;;;6.67;nan;98527.38;5039855;27;97888;-74
2023/11/24 06:34:59;;;;;;;5.63;1.50;;;;;;;6.71;nan;98523.69;5038697;27;96547;-75
2023/11/24 06:37:25;;;;;;;5.05;1.30;;;;;;;6.63;nan;98511.91;5038623;27;96804;-75
2023/11/24 06:39:50;;;;;;;7.65;1.75;;;;;;;6.82;nan;98541.44;5021785;27;100767;-74
2023/11/24 06:42:16;;;;;;;5.53;1.40;;;;;;;6.80;nan;98527.63;5074434;27;97531;-75
2023/11/24 06:44:42;;;;;;;6.22;1.30;;;;;;;6.76;nan;98532.16;5039407;27;96647;-76
2023/11/24 06:47:07;;;;;;;5.63;1.90;;;;;;;6.92;nan;98536.63;5022189;27;96894;-75
2023/11/24 06:49:33;;;;;;;4.35;1.38;;;;;;;6.80;nan;98530.22;5055948;27;98334;-76
2023/11/24 06:52:01;;;;;;;5.80;1.65;;;;;;;6.91;nan;98529.72;5038576;27;101258;-72
2023/11/24 06:54:28;;;;;;;7.70;1.83;;;;;;;6.92;nan;98534.03;5056017;27;96525;-72
2023/11/24 06:56:53;;;;;;;6.97;2.47;;;;;;;6.85;nan;98538.69;5056424;27;96787;-73
2023/11/24 06:59:19;;;;;;;4.20;1.25;;;;;;;6.94;nan;98535.66;5038472;27;99435;-74
2023/11/24 07:01:44;;;;;;;8.73;1.83;;;;;;;7.00;nan;98530.13;5038593;27;101635;-73
2023/11/24 07:04:10;;;;;;;6.35;1.65;;;;;;;7.03;nan;98534.38;5021272;27;97601;-73
2023/11/24 07:06:35;;;;;;;2.88;1.20;;;;;;;6.99;nan;98538.06;5038816;27;96862;-73
2023/11/24 07:09:01;;;;;;;4.75;1.80;;;;;;;7.01;nan;98534.44;5055285;27;97507;-73
2023/11/24 07:11:26;;;;;;;7.53;1.60;;;;;;;6.97;nan;98535.50;5038321;27;101152;-71
2023/11/24 07:13:52;;;;;;;9.32;3.10;;;;;;;7.17;nan;98533.72;5039098;27;96627;-72
2023/11/24 07:16:17;;;;;;;5.68;1.55;;;;;;;7.36;nan;98539.72;5055753;27;96782;-71
2023/11/24 07:18:43;;;;;;;9.00;3.10;;;;;;;7.52;nan;98544.19;5055384;27;97526;-71
2023/11/24 07:21:09;;;;;;;5.75;2.33;;;;;;;7.51;nan;98542.50;5055789;27;97343;-72
2023/11/24 07:23:37;;;;;;;10.95;2.30;;;;;;;7.64;nan;98535.72;5055303;27;96702;-71
2023/11/24 07:26:05;;;;;;;7.10;2.17;;;;;;;7.78;nan;98520.22;5021893;27;96805;-71
2023/11/24 07:28:30;;;;;;;10.20;2.65;;;;;;;7.80;nan;98507.09;5020916;27;101154;-72
2023/11/24 07:30:56;;;;;;;11.60;2.50;;;;;;;8.07;nan;98507.41;5038107;27;97484;-72
2023/11/24 07:33:21;;;;;;;10.10;2.67;;;;;;;8.30;nan;98509.66;5055580;27;96583;-72
2023/11/24 07:35:47;;;;;;;8.00;2.55;;;;;;;8.44;nan;98506.34;5038019;27;96870;-73
2023/11/24 07:38:13;;;;;;;8.90;2.35;;;;;;;8.56;nan;98495.19;5038351;27;98394;-73
2023/11/24 07:40:39;;;;;;;11.25;2.65;;;;;;;8.65;nan;98493.00;5054194;27;101031;-72
2023/11/24 07:43:04;;;;;;;12.23;2.80;;;;;;;8.70;nan;98480.53;5038015;27;96828;-73
2023/11/24 07:45:30;;;;;;;14.70;2.97;;;;;;;8.70;nan;98483.97;5055608;27;96836;-72
2023/11/24 07:47:55;;;;;;;13.77;3.50;;;;;;;8.76;nan;98478.41;5054293;27;100898;-70
2023/11/24 07:50:21;;;;;;;11.65;3.22;;;;;;;9.19;nan;98465.50;5054965;27;97339;-75
2023/11/24 07:52:46;;;;;;;21.52;4.18;;;;;;;9.52;nan;98467.09;5054461;27;96643;-72
2023/11/24 07:55:13;;;;;;;12.43;3.25;;;;;;;9.03;nan;98459.47;5073272;27;96690;-70
2023/11/24 07:57:41;;;;;;;10.48;2.88;;;;;;;8.62;nan;98473.09;5073108;27;97434;-71
2023/11/24 08:00:12;;;;;;;12.80;2.63;;;;;;;8.75;nan;98468.00;5021122;27;101070;-70
2023/11/24 08:02:44;;;;;;;12.10;2.87;;;;;;;8.72;nan;98457.72;5069916;27;96522;-70
2023/11/24 08:05:09;;;;;;;11.25;2.38;;;;;;;9.01;nan;98459.53;5055307;27;96646;-71
2023/11/24 08:07:35;;;;;;;11.32;2.72;;;;;;;8.75;nan;98453.16;5054828;27;97988;-70
2023/11/24 08:10:01;;;;;;;9.13;2.78;;;;;;;8.68;nan;98454.44;5054625;27;97235;-73
2023/11/24 08:12:26;;;;;;;14.43;2.88;;;;;;;8.88;nan;98442.84;5054762;27;96576;-73
2023/11/24 08:14:52;;;;;;;13.80;3.17;;;;;;;8.84;nan;98442.19;5037551;27;96821;-77
2023/11/24 08:17:17;;;;;;;10.88;2.60;;;;;;;8.73;nan;98441.97;5037014;27;101192;-78
2023/11/24 08:19:43;;;;;;;10.68;2.47;;;;;;;9.10;nan;98442.47;5072830;27;98026;-72
2023/11/24 08:22:08;;;;;;;8.32;2.30;;;;;;;9.29;nan;98460.56;5037856;27;96679;-74
2023/11/24 08:24:34;;;;;;;6.72;1.98;;;;;;;8.98;nan;98457.09;5054417;27;96667;-75
2023/11/24 08:27:00;;;;;;;15.40;3.22;;;;;;;8.69;nan;98442.19;5037939;27;97820;-72
2023/11/24 08:29:26;;;;;;;8.52;2.33;;;;;;;8.64;nan;98449.44;5020311;27;99346;-72
2023/11/24 08:31:52;;;;;;;12.32;2.40;;;;;;;8.42;nan;98461.09;5037546;27;96622;-75
2023/11/24 08:34:18;;;;;;;13.93;2.80;;;;;;;8.36;nan;98464.03;5037706;27;96916;-77
2023/11/24 08:36:45;;;;;;;9.40;2.67;;;;;;;8.54;nan;98463.03;5037051;27;100775;-72
2023/11/24 08:39:14;;;;;;;14.80;3.10;;;;;;;8.48;nan;98465.16;5054551;27;98419;-74
2023/11/24 08:41:44;;;;;;;6.22;1.60;;;;;;;8.24;nan;98454.25;5037203;27;96587;-72
2023/11/24 08:44:09;;;;;;;5.72;2.25;;;;;;;8.05;nan;98444.75;5037517;27;96947;-72
2023/11/24 08:46:35;;;;;;;8.68;2.10;;;;;;;8.02;nan;98433.63;5037104;27;101709;-74
2023/11/24 08:49:01;;;;;;;5.55;1.60;;;;;;;7.85;nan;98430.16;5037244;27;97469;-72
2023/11/24 08:51:27;;;;;;;10.98;2.80;;;;;;;8.11;nan;98427.91;5037179;27;96631;-73
2023/11/24 08:53:52;;;;;;;6.20;2.13;;;;;;;8.04;nan;98447.47;5054472;27;96763;-74
2023/11/24 08:56:18;;;;;;;11.52;2.70;;;;;;;8.00;nan;98430.25;5037215;27;97457;-76
2023/11/24 08:58:43;;;;;;;14.02;2.25;;;;;;;8.00;nan;98444.19;5072807;27;97563;-74
2023/11/24 09:01:12;;;;;;;6.97;1.73;;;;;;;8.00;nan;98417.19;5057833;27;96550;-73
2023/11/24 09:03:38;;;;;;;5.90;2.03;;;;;;;8.52;nan;98416.97;5023999;27;96890;-72
2023/11/24 09:06:03;;;;;;;5.00;1.40;;;;;;;8.49;nan;98422.38;5057015;27;97948;-75
2023/11/24 09:08:29;;;;;;;6.28;2.13;;;;;;;8.33;nan;98424.97;5075946;27;97752;-74
2023/11/24 09:10:54;;;;;;;6.35;2.00;;;;;;;8.40;nan;98436.81;5055750;27;96853;-73
2023/11/24 09:13:20;;;;;;;7.03;1.77;;;;;;;8.30;nan;98422.53;5040320;27;96774;-72
2023/11/24 09:15:46;;;;;;;8.82;2.25;;;;;;;8.37;nan;98431.72;5023343;27;101005;-72
2023/11/24 09:18:11;;;;;;;8.30;1.77;;;;;;;8.24;nan;98435.94;5039894;27;99592;-72
2023/11/24 09:20:37;;;;;;;6.85;1.83;;;;;;;8.32;nan;98418.91;5057821;27;96554;-72
2023/11/24 09:23:04;;;;;;;4.97;1.73;;;;;;;8.10;nan;98415.78;5057763;27;96810;-72
2023/11/24 09:25:33;;;;;;;7.28;1.67;;;;;;;8.22;nan;98432.56;5075476;27;97366;-75
2023/11/24 09:27:59;;;;;;;8.55;2.20;;;;;;;8.32;nan;98437.22;5039979;27;100967;-75
2023/11/24 09:30:25;;;;;;;5.75;1.92;;;;;;;8.21;nan;98436.13;5056942;27;96545;-76
2023/11/24 09:32:54;;;;;;;7.68;2.30;;;;;;;8.26;nan;98437.56;5040163;27;96916;-74
2023/11/24 09:35:25;;;;;;;9.45;1.88;;;;;;;8.27;nan;98447.06;5040263;27;101129;-76
2023/11/24 09:37:54;;;;;;;6.75;1.92;;;;;;;8.01;nan;98443.25;5076074;27;97343;-74
2023/11/24 09:40:22;;;;;;;7.28;2.25;;;;;;;7.92;nan;98447.19;5040758;27;96617;-77
2023/11/24 09:42:49;;;;;;;10.60;1.98;;;;;;;8.06;nan;98425.56;5040470;27;96501;-75
2023/11/24 09:45:21;;;;;;;10.13;1.92;;;;;;;7.98;nan;98427.72;5039731;27;101484;-75
2023/11/24 09:47:51;;;;;;;;;;;;;;;8.08;nan;98423.69;5058086;27;97353;-75
2023/11/24 09:50:23;;;;;;;7.72;2.72;;;;;;;8.21;nan;98436.94;5039980;27;96590;-77
2023/11/24 09:52:51;;;;;;;8.57;2.55;;;;;;;8.22;nan;98419.50;5040288;27;96871;-77
2023/11/24 09:55:17;;;;;;;7.75;1.95;;;;;;;8.26;nan;98415.78;5039124;27;101351;-77
2023/11/24 09:57:43;;;;;;;6.50;2.20;;;;;;;8.27;nan;98409.63;5056465;27;101532;-76
2023/11/24 10:00:10;;;;;;;9.77;2.17;;;;;;;8.27;nan;98410.47;5039576;27;96585;-78
2023/11/24 10:02:37;;;;;;;10.27;3.45;;;;;;;8.18;nan;98412.75;5056994;27;96744;-74
2023/11/24 10:05:03;;;;;;;8.43;2.47;;;;;;;7.99;nan;98400.66;5039408;27;100772;-75
2023/11/24 10:07:29;;;;;;;9.50;1.80;;;;;;;7.96;nan;98393.00;5039752;27;97810;-75
2023/11/24 10:09:55;;;;;;;9.88;3.40;;;;;;;8.05;nan;98397.72;5055850;27;96854;-75
2023/11/24 10:12:20;;;;;;;10.95;2.65;;;;;;;8.20;nan;98390.81;5039815;27;96644;-75
2023/11/24 10:14:47;;;;;;;6.00;2.10;;;;;;;8.25;nan;98386.19;5039221;27;100937;-75
2023/11/24 10:17:13;;;;;;;12.63;2.42;;;;;;;8.03;nan;98372.59;5056060;27;100909;-75
2023/11/24 10:19:38;;;;;;;6.85;1.65;;;;;;;8.14;nan;98393.75;5038837;27;97467;-77
2023/11/24 10:22:04;;;;;;;4.22;1.80;;;;;;;7.95;nan;98396.53;5056538;27;97021;-77
2023/11/24 10:24:35;;;;;;;5.95;1.55;;;;;;;8.04;nan;98403.03;5056211;27;97535;-75
2023/11/24 10:27:23;;;;;;;9.50;1.90;;;;;;;7.84;nan;98391.88;5039117;27;100397;-75
2023/11/24 10:29:50;;;;;;;6.70;1.67;;;;;;;7.92;nan;98387.09;5039653;27;96779;-74
2023/11/24 10:32:16;;;;;;;10.95;2.25;;;;;;;7.86;nan;98369.16;5056327;27;96713;-75
2023/11/24 10:34:43;;;;;;;9.63;1.70;;;;;;;7.81;nan;98378.16;5056306;27;97661;-75
2023/11/24 10:37:15;;;;;;;5.47;2.03;;;;;;;7.96;nan;98381.72;5038936;27;100996;-78
2023/11/24 10:39:45;;;;;;;15.32;3.35;;;;;;;8.06;nan;98381.13;5038973;27;96529;-74
2023/11/24 10:42:11;;;;;;;6.82;1.45;;;;;;;7.87;nan;98370.81;5056412;27;96740;-75
2023/11/24 10:44:43;;;;;;;5.35;1.42;;;;;;;7.80;nan;98369.47;5055189;27;97949;-77
2023/11/24 10:47:10;;;;;;;6.70;2.05;;;;;;;7.71;nan;98364.75;5056265;27;98008;-76
2023/11/24 10:50:16;;;;;;;6.43;2.45;;;;;;;7.78;nan;98360.88;5056330;27;96595;-76
2023/11/24 10:53:19;;;;;;;7.68;2.05;;;;;;;7.77;nan;98360.97;5070108;27;96962;-75
2023/11/24 10:55:45;;;;;;;6.97;2.25;;;;;;;7.55;nan;98356.88;5074379;27;97697;-75
2023/11/24 10:58:13;;;;;;;5.53;1.83;;;;;;;7.46;nan;98359.97;5038443;27;101120;-75
2023/11/24 11:00:39;;;;;;;6.30;2.20;;;;;;;7.47;nan;98352.03;5038672;27;96560;-76
2023/11/24 11:03:06;;;;;;;8.82;2.00;;;;;;;7.39;nan;98351.63;5074610;27;96736;-77
2023/11/24 11:05:36;;;;;;;6.45;2.08;;;;;;;7.35;nan;98346.63;5055588;27;98006;-75
2023/11/24 11:08:21;;;;;;;7.82;2.15;;;;;;;7.46;nan;98346.91;5073657;27;97436;-77
2023/11/24 11:11:18;;;;;;;9.30;1.80;;;;;;;7.51;nan;98344.91;5037661;27;96603;-74
2023/11/24 11:13:44;;;;;;;9.10;2.20;;;;;;;7.68;nan;98337.03;4981387;27;97142;-76
2023/11/24 11:16:13;;;;;;;6.05;1.92;;;;;;;7.59;nan;98327.09;5038232;27;98183;-71
2023/11/24 11:18:39;;;;;;;12.93;2.13;;;;;;;7.51;nan;98321.41;5073831;27;97854;-71
2023/11/24 11:21:12;;;;;;;12.88;2.67;;;;;;;7.54;nan;98325.63;5055385;27;96571;-73
2023/11/24 11:23:38;;;;;;;12.00;2.35;;;;;;;7.39;nan;98330.75;5054945;27;96828;-73
2023/11/24 11:26:04;;;;;;;8.07;2.38;;;;;;;7.42;nan;98327.97;5038262;27;97559;-73
2023/11/24 11:28:37;;;;;;;8.70;2.00;;;;;;;7.43;nan;98347.91;5038327;27;101401;-72
2023/11/24 11:31:21;;;;;;;6.53;1.88;;;;;;;7.46;nan;98342.53;5038117;27;96720;-74
2023/11/24 11:33:47;;;;;;;5.70;1.65;;;;;;;7.24;nan;98335.00;5038313;27;96800;-73
2023/11/24 11:36:14;;;;;;;6.80;2.05;;;;;;;7.15;nan;98347.66;5020675;27;100254;-73
2023/11/24 11:38:43;;;;;;;6.40;2.10;;;;;;;7.10;nan;98341.81;5037823;27;101103;-74
2023/11/24 11:41:13;;;;;;;5.15;2.20;;;;;;;6.91;nan;98352.38;5038360;27;96511;-73
2023/11/24 11:43:55;;;;;;;7.03;1.33;;;;;;;6.64;nan;98350.22;5020765;27;96873;-74
2023/11/24 11:46:22;;;;;;;7.43;1.73;;;;;;;6.65;nan;98344.06;5037625;27;100946;-74
2023/11/24 11:48:48;;;;;;;5.90;1.88;;;;;;;6.61;nan;98339.94;5054804;27;97431;-75
2023/11/24 11:51:18;;;;;;;3.97;1.50;;;;;;;6.73;nan;98321.06;5073394;27;96553;-75
2023/11/24 11:53:43;;;;;;;7.90;1.63;;;;;;;6.95;nan;98331.28;5038179;27;96779;-75